Costa Romantica — IBCR — position and weather

sailwx.info

Track history (hours):
 
Tides and Currents Weather Stations Pressure Air Temp Water Temp Dewpoint Dewpoint Depression Visibility Wind Speed Wind Dir Waves Ship Positions

Costa Romantica

Last reported at 2019-Aug-19 14:04 UTC. Time now 2019-Aug-20 09:45 UTC.
Position N 35°04' E 129°07'.

Length 221 m; draft 7.8 m.

Type: Ship. MMSI: 247817000.

Date/timePositionNaut miles runAvg speedWind from/ knotsBaromVisibWave heightAir tempDewpointWater temp
2019-Aug-19 14:04N 35°04' E 129°07'114.7
2019-Aug-19 14:00N 35°05' E 129°06'3 6.0
2019-Aug-19 13:28N 35°07' E 129°03'0 0.0
2019-Aug-19 12:58N 35°07' E 129°03'0 0.0
2019-Aug-19 12:28N 35°07' E 129°03'0 0.0
2019-Aug-19 11:58N 35°07' E 129°03'0 0.0
2019-Aug-19 11:28N 35°07' E 129°03'0 0.0
2019-Aug-19 10:58N 35°07' E 129°03'0 0.0
2019-Aug-19 10:28N 35°07' E 129°03'0 0.0
2019-Aug-19 09:58N 35°07' E 129°03'0 0.0
2019-Aug-19 09:28N 35°07' E 129°03'0 0.0
2019-Aug-19 08:58N 35°07' E 129°03'0 0.0
2019-Aug-19 08:28N 35°07' E 129°03'0 0.0
2019-Aug-19 07:58N 35°07' E 129°03'0 0.0
2019-Aug-19 07:28N 35°07' E 129°03'0 0.0
2019-Aug-19 06:58N 35°07' E 129°03'0 0.0
2019-Aug-19 06:28N 35°07' E 129°03'0 0.0
2019-Aug-19 05:58N 35°07' E 129°03'0 0.0
2019-Aug-19 05:28N 35°07' E 129°03'0 0.0
2019-Aug-19 05:00N 35°07' E 129°03'2 4.0
2019-Aug-19 04:30N 35°06' E 129°05'24416.2
2019-Aug-18 13:26N 36°00' E 133°57'1218.1
2019-Aug-18 12:45N 36°04' E 134°12'14 0.4
2019-Aug-16 22:30N 35°52' E 134°04'1317.0
2019-Aug-16 21:43N 35°51' E 133°47'  
2019-Aug-14 10:40N 35°05' E 129°06'1 8.1
2019-Aug-14 10:31N 35°06' E 129°05'2 3.0
2019-Aug-14 09:55N 35°07' E 129°03'0 0.0
2019-Aug-14 09:28N 35°07' E 129°03'0 0.0
2019-Aug-14 08:58N 35°07' E 129°03'0 0.0
2019-Aug-14 08:28N 35°07' E 129°03'0 0.0
2019-Aug-14 07:55N 35°07' E 129°03'0 0.0
2019-Aug-14 07:28N 35°07' E 129°03'0 0.0
2019-Aug-14 06:58N 35°07' E 129°03'0 0.0
2019-Aug-14 06:16N 35°07' E 129°03'0 0.0
2019-Aug-14 05:55N 35°07' E 129°03'0 0.0
2019-Aug-14 05:25N 35°07' E 129°03'0 0.0
2019-Aug-14 04:55N 35°07' E 129°03'0 0.0
2019-Aug-14 04:25N 35°07' E 129°03'0 0.0
2019-Aug-14 03:55N 35°07' E 129°03'0 0.0
2019-Aug-14 03:28N 35°07' E 129°03'0 0.0
2019-Aug-14 02:58N 35°07' E 129°03'0 0.0
2019-Aug-14 01:55N 35°07' E 129°03'0 0.0
2019-Aug-14 01:25N 35°07' E 129°03'0 0.0
2019-Aug-14 00:58N 35°07' E 129°03'0 0.0
2019-Aug-14 00:25N 35°07' E 129°03'0 0.0
2019-Aug-13 23:58N 35°07' E 129°03'0 0.2
2019-Aug-13 23:31N 35°07' E 129°03'4 7.9
2019-Aug-13 23:01N 35°05' E 129°07'246 8.9
2019-Aug-12 19:16N 35°49' E 134°05'412.9
2019-Aug-12 18:59N 35°51' E 134°09'712.8
2019-Aug-12 18:26N 35°53' E 134°17'  
2019-Aug-09 16:29N 34°42' E 129°49'  
Track history (hours):
 
Tides and Currents Weather Stations Pressure Air Temp Water Temp Dewpoint Dewpoint Depression Visibility Wind Speed Wind Dir Waves Ship Positions

Costa Romantica

Last reported at 2019-Aug-19 14:04 UTC. Time now 2019-Aug-20 09:45 UTC.
Position N 35°04' E 129°07'.

Length 221 m; draft 7.8 m.

Type: Ship. MMSI: 247817000.

Date/timePositionNaut miles runAvg speedWind from/ knotsBaromVisibWave heightAir tempDewpointWater temp
2019-Aug-19 14:04N 35°04' E 129°07'114.7
2019-Aug-19 14:00N 35°05' E 129°06'3 6.0
2019-Aug-19 13:28N 35°07' E 129°03'0 0.0
2019-Aug-19 12:58N 35°07' E 129°03'0 0.0
2019-Aug-19 12:28N 35°07' E 129°03'0 0.0
2019-Aug-19 11:58N 35°07' E 129°03'0 0.0
2019-Aug-19 11:28N 35°07' E 129°03'0 0.0
2019-Aug-19 10:58N 35°07' E 129°03'0 0.0
2019-Aug-19 10:28N 35°07' E 129°03'0 0.0
2019-Aug-19 09:58N 35°07' E 129°03'0 0.0
2019-Aug-19 09:28N 35°07' E 129°03'0 0.0
2019-Aug-19 08:58N 35°07' E 129°03'0 0.0
2019-Aug-19 08:28N 35°07' E 129°03'0 0.0
2019-Aug-19 07:58N 35°07' E 129°03'0 0.0
2019-Aug-19 07:28N 35°07' E 129°03'0 0.0
2019-Aug-19 06:58N 35°07' E 129°03'0 0.0
2019-Aug-19 06:28N 35°07' E 129°03'0 0.0
2019-Aug-19 05:58N 35°07' E 129°03'0 0.0
2019-Aug-19 05:28N 35°07' E 129°03'0 0.0
2019-Aug-19 05:00N 35°07' E 129°03'2 4.0
2019-Aug-19 04:30N 35°06' E 129°05'24416.2
2019-Aug-18 13:26N 36°00' E 133°57'1218.1
2019-Aug-18 12:45N 36°04' E 134°12'14 0.4
2019-Aug-16 22:30N 35°52' E 134°04'1317.0
2019-Aug-16 21:43N 35°51' E 133°47'  
2019-Aug-14 10:40N 35°05' E 129°06'1 8.1
2019-Aug-14 10:31N 35°06' E 129°05'2 3.0
2019-Aug-14 09:55N 35°07' E 129°03'0 0.0
2019-Aug-14 09:28N 35°07' E 129°03'0 0.0
2019-Aug-14 08:58N 35°07' E 129°03'0 0.0
2019-Aug-14 08:28N 35°07' E 129°03'0 0.0
2019-Aug-14 07:55N 35°07' E 129°03'0 0.0
2019-Aug-14 07:28N 35°07' E 129°03'0 0.0
2019-Aug-14 06:58N 35°07' E 129°03'0 0.0
2019-Aug-14 06:16N 35°07' E 129°03'0 0.0
2019-Aug-14 05:55N 35°07' E 129°03'0 0.0
2019-Aug-14 05:25N 35°07' E 129°03'0 0.0
2019-Aug-14 04:55N 35°07' E 129°03'0 0.0
2019-Aug-14 04:25N 35°07' E 129°03'0 0.0
2019-Aug-14 03:55N 35°07' E 129°03'0 0.0
2019-Aug-14 03:28N 35°07' E 129°03'0 0.0
2019-Aug-14 02:58N 35°07' E 129°03'0 0.0
2019-Aug-14 01:55N 35°07' E 129°03'0 0.0
2019-Aug-14 01:25N 35°07' E 129°03'0 0.0
2019-Aug-14 00:58N 35°07' E 129°03'0 0.0
2019-Aug-14 00:25N 35°07' E 129°03'0 0.0
2019-Aug-13 23:58N 35°07' E 129°03'0 0.2
2019-Aug-13 23:31N 35°07' E 129°03'4 7.9
2019-Aug-13 23:01N 35°05' E 129°07'246 8.9
2019-Aug-12 19:16N 35°49' E 134°05'412.9
2019-Aug-12 18:59N 35°51' E 134°09'712.8
2019-Aug-12 18:26N 35°53' E 134°17'  
2019-Aug-09 16:29N 34°42' E 129°49'  

Dump ship's entire track history